In Rescue
 
Open Full Screen Window  High Contrast Mode
Wind Gusting 19 knots
12
May 19, 2019 12:23 PM EDT
Weather Information
Wind Direction
  200 °
Wind Speed
  12 kt (14 mph)
Wind Gust
  19 kt (22 mph)
Altimeter
29.74 in
Visibility
10 SM
Temperature
25° C
77° F
Dewpoint
20° C
68° F
Humidity
74%
1hr Rain Fall
00.00 in.
24hr Rain Fall
00.00 in.
Sky Condition
Overcast @ 9,000 ft
Broken @ 4,500 ft
Broken @ 3,900 ft
VFR

METAR KTTF 191623Z AUTO 20012G19KT 10SM BKN039 BKN045 OVC090 25/20 A2974 RMK AO2 T02480195

FAA Disclaimer: The data displayed is for advisory purposes only and is not to be used for flight planning or operations.